createdAt,value
2023-04-22T00:01:34.042Z,101463.66
2023-04-22T00:04:02.324Z,101458.34
2023-04-22T00:06:31.418Z,101458.47
2023-04-22T00:08:59.304Z,101461.16
2023-04-22T00:11:27.100Z,101452.69
2023-04-22T00:13:56.203Z,101451.03
2023-04-22T00:16:23.984Z,101450.19
2023-04-22T00:18:51.650Z,101438.22
2023-04-22T00:21:19.278Z,101429.25
2023-04-22T00:23:47.112Z,101430.09
2023-04-22T00:26:15.271Z,101428.44
2023-04-22T00:28:42.995Z,101417.66
2023-04-22T00:31:13.116Z,101414.19
2023-04-22T00:33:41.048Z,101424.13
2023-04-22T00:36:09.024Z,101406.34
2023-04-22T00:38:36.652Z,101402.06
2023-04-22T00:41:04.456Z,101411.53
2023-04-22T00:43:32.077Z,101408.03
2023-04-22T00:46:00.216Z,101408.03
2023-04-22T00:48:30.912Z,101401.88
2023-04-22T00:50:58.529Z,101391.59
2023-04-22T00:53:26.316Z,101396.38
2023-04-22T00:55:54.124Z,101387.75
2023-04-22T00:58:23.809Z,101385.13
2023-04-22T01:00:52.878Z,101383.44
2023-04-22T01:03:22.349Z,101380.13
2023-04-22T01:05:51.865Z,101380.13
2023-04-22T01:08:19.468Z,101388.91
2023-04-22T01:10:47.217Z,101380.13
2023-04-22T01:13:15.169Z,101378.44
2023-04-22T01:15:42.775Z,101372.47
2023-04-22T01:18:11.270Z,101370.81
2023-04-22T01:20:38.973Z,101372.66
2023-04-22T01:23:16.262Z,101361.34
2023-04-22T01:25:44.556Z,101369.16
2023-04-22T01:28:12.512Z,101362.84
2023-04-22T01:30:40.627Z,101359.53
2023-04-22T01:33:08.678Z,101357.91
2023-04-22T01:35:37.665Z,101353.56
2023-04-22T01:38:06.104Z,101351.06
2023-04-22T01:40:35.658Z,101346.06
2023-04-22T01:43:04.179Z,101346.91
2023-04-22T01:45:32.261Z,101346.25
2023-04-22T01:48:00.396Z,101343.59
2023-04-22T01:50:28.185Z,101337.78
2023-04-22T01:52:55.867Z,101337.63
2023-04-22T01:55:23.548Z,101332.31
2023-04-22T01:57:53.183Z,101326.34
2023-04-22T02:00:20.793Z,101328.97
2023-04-22T02:02:48.729Z,101325.34
2023-04-22T02:05:16.864Z,101321.72
2023-04-22T02:07:44.538Z,101321.03
2023-04-22T02:10:13.030Z,101323.03
2023-04-22T02:12:40.600Z,101316.88
2023-04-22T02:15:11.164Z,101317.72
2023-04-22T02:17:39.180Z,101318.69
2023-04-22T02:20:08.093Z,101309.25
2023-04-22T02:22:35.973Z,101323.66
2023-04-22T02:25:03.709Z,101300.09
2023-04-22T02:27:31.432Z,101305.56
2023-04-22T02:29:59.191Z,101302.06
2023-04-22T02:32:28.201Z,101307.88
2023-04-22T02:34:55.846Z,101297.59
2023-04-22T02:37:23.713Z,101292.28
2023-04-22T02:39:51.481Z,101288.78
2023-04-22T02:42:19.118Z,101279.34
2023-04-22T02:44:46.756Z,101289.94
2023-04-22T02:47:14.349Z,101271.56
2023-04-22T02:49:43.436Z,101268.91
2023-04-22T02:52:11.138Z,101262.78
2023-04-22T02:54:38.784Z,101264.41
2023-04-22T02:57:06.607Z,101261.28
2023-04-22T02:59:35.341Z,101255.97
2023-04-22T03:02:05.943Z,101266.56
2023-04-22T03:04:34.475Z,101257.63
2023-04-22T03:07:04.212Z,101260.44
2023-04-22T03:09:31.878Z,101251.66
2023-04-22T03:11:59.548Z,101245.50
2023-04-22T03:14:27.136Z,101244.00
2023-04-22T03:16:54.773Z,101244.19
2023-04-22T03:19:22.433Z,101237.03
2023-04-22T03:21:50.012Z,101233.72
2023-04-22T03:24:18.932Z,101228.94
2023-04-22T03:26:46.521Z,101226.09
2023-04-22T03:29:14.206Z,101225.94
2023-04-22T03:31:42.820Z,101222.47
2023-04-22T03:34:10.411Z,101221.44
2023-04-22T03:36:38.340Z,101219.13
2023-04-22T03:39:06.071Z,101221.63
2023-04-22T03:41:35.014Z,101218.97
2023-04-22T03:44:02.725Z,101210.38
2023-04-22T03:46:30.697Z,101204.88
2023-04-22T03:48:58.418Z,101192.78
2023-04-22T03:51:26.048Z,101191.81
2023-04-22T03:53:53.699Z,101181.34
2023-04-22T03:56:21.518Z,101183.03
2023-04-22T03:58:50.484Z,101183.69
2023-04-22T04:01:18.217Z,101175.59
2023-04-22T04:03:46.112Z,101173.41
2023-04-22T04:06:13.995Z,101164.78
2023-04-22T04:08:41.576Z,101151.22
2023-04-22T04:11:10.840Z,101156.53
2023-04-22T04:13:38.559Z,101160.84
2023-04-22T04:16:08.026Z,101156.03
2023-04-22T04:18:36.562Z,101158.34
2023-04-22T04:21:04.532Z,101163.00
2023-04-22T04:23:32.200Z,101163.16
2023-04-22T04:26:02.636Z,101172.47
2023-04-22T04:28:32.183Z,101156.72
2023-04-22T04:30:59.911Z,101155.91
2023-04-22T04:33:28.918Z,101157.06
2023-04-22T04:35:56.538Z,101159.88
2023-04-22T04:38:25.035Z,101165.47
2023-04-22T04:40:53.734Z,101158.16
2023-04-22T04:43:25.663Z,101150.31
2023-04-22T04:45:53.473Z,101152.59
2023-04-22T04:48:24.851Z,101151.31
2023-04-22T04:50:54.229Z,101147.44
2023-04-22T04:53:22.904Z,101146.00
2023-04-22T04:55:50.629Z,101145.00
2023-04-22T04:58:18.215Z,101143.78
2023-04-22T05:00:45.809Z,101138.59
2023-04-22T05:03:13.718Z,101144.75
2023-04-22T05:05:41.549Z,101130.59
2023-04-22T05:08:10.489Z,101123.50
2023-04-22T05:10:38.209Z,101123.81
2023-04-22T05:13:06.131Z,101119.94
2023-04-22T05:15:33.796Z,101115.31
2023-04-22T05:18:01.835Z,101115.69
2023-04-22T05:20:29.459Z,101123.22
2023-04-22T05:22:57.124Z,101118.91
2023-04-22T05:25:26.046Z,101121.59
2023-04-22T05:27:53.729Z,101107.69
2023-04-22T05:30:21.461Z,101111.94
2023-04-22T05:32:49.180Z,101117.06
2023-04-22T05:35:17.221Z,101116.16
2023-04-22T05:37:45.125Z,101120.53
2023-04-22T05:40:13.179Z,101117.78
2023-04-22T05:42:42.283Z,101111.50
2023-04-22T05:45:10.627Z,101110.63
2023-04-22T05:47:38.253Z,101098.03
2023-04-22T05:50:06.805Z,101096.75
2023-04-22T05:52:34.436Z,101094.72
2023-04-22T05:55:02.018Z,101094.31
2023-04-22T05:57:29.629Z,101097.88
2023-04-22T05:59:59.681Z,101094.44
2023-04-22T06:02:27.588Z,101094.31
2023-04-22T06:04:55.619Z,101087.47
2023-04-22T06:07:23.598Z,101078.38
2023-04-22T06:09:59.435Z,101075.19
2023-04-22T06:12:31.564Z,101077.81
2023-04-22T06:15:00.733Z,101076.66
2023-04-22T06:17:28.502Z,101082.84
2023-04-22T06:19:56.105Z,101074.28
2023-04-22T06:22:23.800Z,101069.53
2023-04-22T06:24:51.421Z,101066.19
2023-04-22T06:27:19.852Z,101061.81
2023-04-22T06:29:47.465Z,101060.38
2023-04-22T06:32:16.432Z,101055.53
2023-04-22T06:34:44.105Z,101060.34
2023-04-22T06:37:11.829Z,101060.19
2023-04-22T06:39:40.024Z,101057.69
2023-04-22T06:42:08.809Z,101049.84
2023-04-22T06:44:36.526Z,101046.59
2023-04-22T06:47:04.336Z,101031.97
2023-04-22T06:49:33.504Z,101042.16
2023-04-22T06:52:01.555Z,101029.50
2023-04-22T06:54:29.419Z,101043.69
2023-04-22T06:56:57.505Z,101040.63
2023-04-22T06:59:25.295Z,101027.44
2023-04-22T07:01:52.931Z,101032.25
2023-04-22T07:04:21.003Z,101029.31
2023-04-22T07:06:49.998Z,101026.75
2023-04-22T07:09:17.597Z,101024.19
2023-04-22T07:11:45.236Z,101017.38
2023-04-22T07:14:12.852Z,101010.53
2023-04-22T07:16:40.516Z,101010.50
2023-04-22T07:19:08.327Z,101012.28
2023-04-22T07:21:35.985Z,101012.53
2023-04-22T07:24:05.290Z,101010.97
2023-04-22T07:26:34.446Z,101015.31
2023-04-22T07:29:02.174Z,101021.00
2023-04-22T07:31:29.876Z,101016.47
2023-04-22T07:33:57.906Z,101012.09
2023-04-22T07:36:26.403Z,101016.91
2023-04-22T07:38:54.162Z,101028.41
2023-04-22T07:41:23.111Z,101023.72
2023-04-22T07:43:50.700Z,101027.81
2023-04-22T07:46:18.382Z,101022.81
2023-04-22T07:48:46.031Z,101024.13
2023-04-22T07:51:13.648Z,101019.44
2023-04-22T07:53:41.249Z,101022.28
2023-04-22T07:56:08.963Z,101006.06
2023-04-22T07:58:37.981Z,100994.53
2023-04-22T08:01:06.164Z,100999.75
2023-04-22T08:03:33.951Z,101000.72
2023-04-22T08:06:01.877Z,100991.94
2023-04-22T08:08:29.591Z,100986.03
2023-04-22T08:10:57.211Z,100985.25
2023-04-22T08:13:24.805Z,100978.69
2023-04-22T08:15:53.954Z,100977.53
2023-04-22T08:18:21.970Z,100966.22
2023-04-22T08:20:49.739Z,100963.94
2023-04-22T08:23:17.416Z,100967.38
2023-04-22T08:25:45.177Z,100958.19
2023-04-22T08:28:12.923Z,100955.50
2023-04-22T08:30:40.584Z,100953.13
2023-04-22T08:33:09.568Z,100941.50
2023-04-22T08:35:37.552Z,100957.31
2023-04-22T08:38:05.167Z,100951.50
2023-04-22T08:40:32.805Z,100950.84
2023-04-22T08:43:00.453Z,100938.56
2023-04-22T08:45:28.146Z,100944.69
2023-04-22T08:47:57.002Z,100938.81
2023-04-22T08:50:27.780Z,100927.66
2023-04-22T08:52:55.411Z,100931.44
2023-04-22T08:55:23.238Z,100923.63
2023-04-22T08:57:51.320Z,100918.00
2023-04-22T09:00:19.962Z,100921.09
2023-04-22T09:02:48.374Z,100917.66
2023-04-22T09:05:16.861Z,100915.31
2023-04-22T09:07:46.134Z,100908.75
2023-04-22T09:10:13.731Z,100913.16
2023-04-22T09:12:42.356Z,100920.22
2023-04-22T09:15:11.574Z,100908.75
2023-04-22T09:17:39.412Z,100907.56
2023-04-22T09:20:09.648Z,100916.72
2023-04-22T09:22:42.563Z,100909.06
2023-04-22T09:25:18.275Z,100908.25
2023-04-22T09:27:50.411Z,100908.47
2023-04-22T09:30:19.814Z,100914.78
2023-04-22T09:32:54.716Z,100914.22
2023-04-22T09:35:30.782Z,100912.25
2023-04-22T09:37:59.005Z,100909.88
2023-04-22T09:40:28.939Z,100904.91
2023-04-22T09:42:58.411Z,100901.66
2023-04-22T09:45:30.973Z,100901.25
2023-04-22T09:48:01.979Z,100900.03
2023-04-22T09:50:30.105Z,100896.59
2023-04-22T09:53:01.057Z,100900.31
2023-04-22T09:55:32.598Z,100890.50
2023-04-22T09:58:07.089Z,100892.63
2023-04-22T10:00:35.884Z,100897.50
2023-04-22T10:03:03.684Z,100876.56
2023-04-22T10:05:31.820Z,100878.09
2023-04-22T10:07:59.482Z,100857.84
2023-04-22T10:10:27.354Z,100858.56
2023-04-22T10:12:56.467Z,100855.31
2023-04-22T10:15:26.894Z,100849.69
2023-04-22T10:17:56.906Z,100855.13
2023-04-22T10:20:25.931Z,100854.53
2023-04-22T10:22:54.771Z,100842.88
2023-04-22T10:25:24.016Z,100849.94
2023-04-22T10:28:03.310Z,100840.44
2023-04-22T10:30:33.606Z,100838.56
2023-04-22T10:33:35.196Z,100835.75
2023-04-22T10:36:08.095Z,100833.00
2023-04-22T10:38:36.008Z,100832.47
2023-04-22T10:41:04.731Z,100832.50
2023-04-22T10:43:51.068Z,100827.69
2023-04-22T10:46:56.009Z,100816.06
2023-04-22T10:49:25.422Z,100838.38
2023-04-22T10:51:55.841Z,100825.59
2023-04-22T10:54:58.716Z,100825.59
2023-04-22T10:57:36.287Z,100825.31
2023-04-22T11:00:19.541Z,100814.47
2023-04-22T11:02:47.963Z,100808.75
2023-04-22T11:05:25.875Z,100805.75
2023-04-22T11:07:55.692Z,100797.28
2023-04-22T11:10:43.018Z,100798.31
2023-04-22T11:13:16.500Z,100799.22
2023-04-22T11:15:47.817Z,100792.41
2023-04-22T11:18:21.361Z,100795.69
2023-04-22T11:20:50.573Z,100783.66
2023-04-22T11:23:20.428Z,100790.75
2023-04-22T11:25:48.003Z,100784.13
2023-04-22T11:28:15.593Z,100784.84
2023-04-22T11:30:43.167Z,100780.75
2023-04-22T11:33:16.428Z,100783.56
2023-04-22T11:35:44.521Z,100777.81
2023-04-22T11:38:12.363Z,100765.22
2023-04-22T11:40:46.791Z,100764.81
2023-04-22T11:43:18.948Z,100767.53
2023-04-22T11:45:48.488Z,100778.41
2023-04-22T11:48:17.544Z,100773.63
2023-04-22T11:50:45.524Z,100767.16
2023-04-22T11:55:45.886Z,100764.63
2023-04-22T11:58:15.538Z,100761.56
2023-04-22T12:00:45.947Z,100759.31
2023-04-22T12:03:16.123Z,100758.91
2023-04-22T12:05:47.867Z,100749.31
2023-04-22T12:08:17.592Z,100750.50
2023-04-22T12:10:48.134Z,100746.13
2023-04-22T12:13:22.793Z,100757.88
2023-04-22T12:15:54.864Z,100757.78
2023-04-22T12:18:30.711Z,100747.84
2023-04-22T12:21:02.392Z,100748.38
2023-04-22T12:23:30.049Z,100747.41
2023-04-22T12:25:57.771Z,100741.50
2023-04-22T12:28:25.550Z,100744.09
2023-04-22T12:30:53.676Z,100739.84
2023-04-22T12:33:21.442Z,100740.47
2023-04-22T12:35:52.479Z,100737.03
2023-04-22T12:38:21.469Z,100732.34
2023-04-22T12:40:49.076Z,100737.47
2023-04-22T12:43:16.660Z,100724.78
2023-04-22T12:45:44.971Z,100734.00
2023-04-22T12:48:12.555Z,100734.47
2023-04-22T12:50:40.414Z,100721.69
2023-04-22T12:53:08.230Z,100721.25
2023-04-22T12:55:37.623Z,100715.38
2023-04-22T12:58:05.453Z,100721.38
2023-04-22T13:00:33.341Z,100714.81
2023-04-22T13:03:01.217Z,100718.06
2023-04-22T13:05:29.047Z,100708.81
2023-04-22T13:08:06.597Z,100704.47
2023-04-22T13:10:35.271Z,100710.91
2023-04-22T13:13:17.900Z,100701.75
2023-04-22T13:15:46.967Z,100686.31
2023-04-22T13:18:15.968Z,100689.50
2023-04-22T13:20:43.836Z,100688.56
2023-04-22T13:23:12.869Z,100674.19
2023-04-22T13:25:40.693Z,100671.31
2023-04-22T13:28:11.226Z,100681.38
2023-04-22T13:30:38.828Z,100680.03
2023-04-22T13:33:06.741Z,100679.22
2023-04-22T13:35:34.471Z,100689.06
2023-04-22T13:38:02.277Z,100673.38
2023-04-22T13:40:30.229Z,100665.88
2023-04-22T13:42:58.179Z,100662.56
2023-04-22T13:45:27.172Z,100668.91
2023-04-22T13:47:55.402Z,100658.88
2023-04-22T13:50:24.308Z,100658.22
2023-04-22T13:52:52.325Z,100652.25
2023-04-22T13:55:20.533Z,100654.75
2023-04-22T13:57:48.165Z,100649.06
2023-04-22T14:00:16.024Z,100649.97
2023-04-22T14:02:45.681Z,100641.19
2023-04-22T14:05:13.509Z,100644.81
2023-04-22T14:07:41.227Z,100640.94
2023-04-22T14:10:11.948Z,100633.38
2023-04-22T14:12:39.664Z,100631.41
2023-04-22T14:15:10.745Z,100625.00
2023-04-22T14:17:38.558Z,100629.78
2023-04-22T14:20:11.417Z,100621.41
2023-04-22T14:22:39.755Z,100614.13
2023-04-22T14:25:08.608Z,100620.09
2023-04-22T14:27:36.414Z,100608.28
2023-04-22T14:30:05.989Z,100604.44
2023-04-22T14:32:33.785Z,100596.09
2023-04-22T14:35:01.429Z,100601.69
2023-04-22T14:37:31.669Z,100593.19
2023-04-22T14:39:59.410Z,100598.72
2023-04-22T14:42:27.054Z,100591.66
2023-04-22T14:44:54.842Z,100590.59
2023-04-22T14:47:22.697Z,100590.69
2023-04-22T14:49:50.569Z,100590.84
2023-04-22T14:52:18.248Z,100586.22
2023-04-22T14:54:50.573Z,100582.75
2023-04-22T14:57:19.553Z,100580.56
2023-04-22T14:59:47.314Z,100572.53
2023-04-22T15:02:17.202Z,100579.00
2023-04-22T15:04:45.474Z,100566.75
2023-04-22T15:07:13.507Z,100569.28
2023-04-22T15:09:41.461Z,100566.78
2023-04-22T15:12:10.835Z,100556.84
2023-04-22T15:14:38.568Z,100552.50
2023-04-22T15:17:06.948Z,100550.63
2023-04-22T15:19:35.034Z,100552.53
2023-04-22T15:22:03.086Z,100547.88
2023-04-22T15:24:30.755Z,100543.88
2023-04-22T15:26:59.460Z,100544.81
2023-04-22T15:29:28.560Z,100540.91
2023-04-22T15:31:56.700Z,100542.59
2023-04-22T15:34:24.838Z,100536.78
2023-04-22T15:36:52.671Z,100532.63
2023-04-22T15:39:20.339Z,100534.25
2023-04-22T15:41:47.997Z,100525.59
2023-04-22T15:44:16.288Z,100516.19
2023-04-22T15:46:46.830Z,100518.97
2023-04-22T15:49:14.752Z,100516.09
2023-04-22T15:51:43.128Z,100524.31
2023-04-22T15:54:11.191Z,100507.59
2023-04-22T15:56:38.810Z,100499.72
2023-04-22T15:59:06.882Z,100504.50
2023-04-22T16:01:34.569Z,100512.66
2023-04-22T16:04:05.122Z,100500.38
2023-04-22T16:06:33.119Z,100501.25
2023-04-22T16:09:01.191Z,100500.28
2023-04-22T16:11:30.319Z,100493.78
2023-04-22T16:13:58.073Z,100491.34
2023-04-22T16:16:27.589Z,100483.38
2023-04-22T16:18:55.651Z,100489.78
2023-04-22T16:21:25.100Z,100478.88
2023-04-22T16:23:52.718Z,100481.13
2023-04-22T16:26:20.507Z,100475.28
2023-04-22T16:28:48.259Z,100467.81
2023-04-22T16:31:18.141Z,100466.81
2023-04-22T16:33:46.464Z,100466.78
2023-04-22T16:36:14.356Z,100458.75
2023-04-22T16:38:43.606Z,100458.19
2023-04-22T16:41:11.569Z,100450.81
2023-04-22T16:43:41.030Z,100452.97
2023-04-22T16:46:08.988Z,100446.75
2023-04-22T16:48:36.867Z,100449.69
2023-04-22T16:51:04.791Z,100448.91
2023-04-22T16:53:32.625Z,100443.28
2023-04-22T16:56:01.595Z,100430.00
2023-04-22T16:58:29.306Z,100437.84
2023-04-22T17:00:56.929Z,100437.31
2023-04-22T17:03:24.914Z,100426.16
2023-04-22T17:05:52.896Z,100421.19
2023-04-22T17:08:20.854Z,100420.66
2023-04-22T17:10:48.553Z,100407.03
2023-04-22T17:13:17.656Z,100403.78
2023-04-22T17:15:45.295Z,100398.59
2023-04-22T17:18:14.286Z,100397.50
2023-04-22T17:20:42.553Z,100390.53
2023-04-22T17:23:10.545Z,100381.41
2023-04-22T17:25:38.548Z,100389.28
2023-04-22T17:28:06.187Z,100378.06
2023-04-22T17:30:36.039Z,100377.03
2023-04-22T17:33:04.448Z,100364.56
2023-04-22T17:35:32.080Z,100365.66
2023-04-22T17:37:59.654Z,100361.06
2023-04-22T17:40:27.259Z,100362.47
2023-04-22T17:42:54.959Z,100361.16
2023-04-22T17:45:22.672Z,100363.66
2023-04-22T17:47:51.754Z,100365.31
2023-04-22T17:50:19.687Z,100362.63
2023-04-22T17:52:47.360Z,100356.94
2023-04-22T17:55:15.253Z,100363.22
2023-04-22T17:57:42.888Z,100360.00
2023-04-22T18:00:11.582Z,100355.66
2023-04-22T18:02:39.296Z,100356.75
2023-04-22T18:05:09.085Z,100361.09
2023-04-22T18:07:36.756Z,100361.13
2023-04-22T18:10:04.813Z,100347.81
2023-04-22T18:12:33.609Z,100356.25
2023-04-22T18:15:01.177Z,100354.03
2023-04-22T18:17:29.024Z,100340.22
2023-04-22T18:20:09.713Z,100344.00
2023-04-22T18:22:43.699Z,100338.53
2023-04-22T18:25:11.641Z,100336.38
2023-04-22T18:27:39.219Z,100342.31
2023-04-22T18:30:07.944Z,100339.28
2023-04-22T18:32:36.929Z,100345.50
2023-04-22T18:35:05.859Z,100347.63
2023-04-22T18:37:34.897Z,100336.81
2023-04-22T18:40:06.125Z,100337.34
2023-04-22T18:42:35.470Z,100336.22
2023-04-22T18:45:04.735Z,100339.47
2023-04-22T18:47:33.241Z,100339.13
2023-04-22T18:50:00.890Z,100341.06
2023-04-22T18:52:28.903Z,100339.41
2023-04-22T18:54:56.571Z,100334.25
2023-04-22T18:57:25.672Z,100335.91
2023-04-22T18:59:54.230Z,100337.50
2023-04-22T19:02:23.629Z,100332.66
2023-04-22T19:04:53.558Z,100343.16
2023-04-22T19:07:21.886Z,100339.94
2023-04-22T19:09:49.559Z,100336.41
2023-04-22T19:12:19.372Z,100343.69
2023-04-22T19:14:48.864Z,100338.81
2023-04-22T19:17:16.601Z,100347.75
2023-04-22T19:19:45.366Z,100336.94
2023-04-22T19:22:16.618Z,100331.22
2023-04-22T19:24:45.483Z,100331.47
2023-04-22T19:27:13.218Z,100323.94
2023-04-22T19:29:42.915Z,100328.75
2023-04-22T19:32:12.381Z,100324.41
2023-04-22T19:34:40.081Z,100348.19
2023-04-22T19:37:08.225Z,100432.72
2023-04-22T19:39:36.313Z,100447.47
2023-04-22T19:42:04.925Z,100465.31
2023-04-22T19:44:32.775Z,100481.66
2023-04-22T19:47:02.986Z,100481.28
2023-04-22T19:49:33.478Z,100493.13
2023-04-22T19:52:03.221Z,100506.53
2023-04-22T19:54:31.932Z,100512.66
2023-04-22T19:57:00.150Z,100514.22
2023-04-22T19:59:30.971Z,100511.59
2023-04-22T20:01:59.058Z,100509.47
2023-04-22T20:04:27.607Z,100515.88
2023-04-22T20:07:01.447Z,100514.75
2023-04-22T20:09:32.740Z,100530.81
2023-04-22T20:12:01.217Z,100543.72
2023-04-22T20:14:29.810Z,100543.03
2023-04-22T20:16:57.786Z,100542.13
2023-04-22T20:19:25.547Z,100533.94
2023-04-22T20:21:55.261Z,100524.13
2023-04-22T20:24:25.659Z,100517.38
2023-04-22T20:26:53.432Z,100518.31
2023-04-22T20:29:22.610Z,100514.78
2023-04-22T20:31:51.117Z,100523.69
2023-04-22T20:34:19.143Z,100514.22
2023-04-22T20:36:47.198Z,100510.47
2023-04-22T20:39:16.646Z,100515.75
2023-04-22T20:41:46.663Z,100505.81
2023-04-22T20:44:14.834Z,100513.06
2023-04-22T20:46:42.459Z,100527.78
2023-04-22T20:49:10.978Z,100517.84
2023-04-22T20:51:38.786Z,100510.25
2023-04-22T20:54:17.427Z,100509.44
2023-04-22T20:56:54.724Z,100508.84
2023-04-22T20:59:22.852Z,100503.13
2023-04-22T21:01:52.482Z,100513.06
2023-04-22T21:04:21.189Z,100516.56
2023-04-22T21:06:50.847Z,100517.84
2023-04-22T21:09:20.737Z,100519.59
2023-04-22T21:11:49.924Z,100516.34
2023-04-22T21:14:20.979Z,100511.44
2023-04-22T21:16:58.127Z,100502.19
2023-04-22T21:19:25.956Z,100503.09
2023-04-22T21:21:55.395Z,100503.81
2023-04-22T21:24:23.485Z,100498.31
2023-04-22T21:26:51.755Z,100500.19
2023-04-22T21:29:21.429Z,100503.91
2023-04-22T21:32:01.200Z,100500.03
2023-04-22T21:34:32.962Z,100498.91
2023-04-22T21:37:00.666Z,100494.22
2023-04-22T21:39:28.774Z,100492.22
2023-04-22T21:41:56.385Z,100481.38
2023-04-22T21:44:25.454Z,100482.06
2023-04-22T21:46:53.057Z,100482.53
2023-04-22T21:49:22.924Z,100478.66
2023-04-22T21:51:50.718Z,100482.03
2023-04-22T21:54:18.581Z,100477.34
2023-04-22T21:56:46.227Z,100475.72
2023-04-22T21:59:13.807Z,100471.66
2023-04-22T22:01:43.258Z,100478.50
2023-04-22T22:04:15.972Z,100479.22
2023-04-22T22:06:45.134Z,100480.94
2023-04-22T22:09:13.627Z,100483.84
2023-04-22T22:11:41.286Z,100490.81
2023-04-22T22:14:08.854Z,100494.09
2023-04-22T22:16:38.216Z,100499.22
2023-04-22T22:19:07.444Z,100496.53
2023-04-22T22:21:36.040Z,100499.31
2023-04-22T22:24:04.430Z,100497.25
2023-04-22T22:26:32.460Z,100491.06
2023-04-22T22:29:00.413Z,100493.94
2023-04-22T22:31:28.953Z,100496.41
2023-04-22T22:33:57.403Z,100496.41
2023-04-22T22:36:28.542Z,100495.84
2023-04-22T22:38:56.219Z,100489.88
2023-04-22T22:41:24.194Z,100482.88
2023-04-22T22:43:51.825Z,100485.41
2023-04-22T22:46:19.530Z,100492.50
2023-04-22T22:48:47.797Z,100490.06
2023-04-22T22:51:18.537Z,100487.00
2023-04-22T22:53:48.148Z,100498.19
2023-04-22T22:56:17.949Z,100495.56
2023-04-22T22:58:46.070Z,100493.19
2023-04-22T23:01:13.786Z,100495.88
2023-04-22T23:03:41.748Z,100492.13
2023-04-22T23:06:09.493Z,100489.69
2023-04-22T23:08:37.146Z,100493.41
2023-04-22T23:11:06.160Z,100491.78
2023-04-22T23:13:33.938Z,100490.97
2023-04-22T23:16:02.514Z,100495.06
2023-04-22T23:18:30.845Z,100491.09
2023-04-22T23:21:01.143Z,100490.06
2023-04-22T23:23:30.147Z,100487.75
2023-04-22T23:26:00.599Z,100484.84
2023-04-22T23:28:30.296Z,100491.84
2023-04-22T23:30:58.532Z,100495.34
2023-04-22T23:33:26.844Z,100487.06
2023-04-22T23:35:56.567Z,100488.47
2023-04-22T23:38:24.542Z,100491.16
2023-04-22T23:40:52.258Z,100491.41
2023-04-22T23:43:19.872Z,100490.56
2023-04-22T23:45:48.997Z,100495.81
2023-04-22T23:48:16.671Z,100493.13
2023-04-22T23:50:44.275Z,100493.34
2023-04-22T23:53:11.885Z,100491.22
2023-04-22T23:55:40.167Z,100486.09
2023-04-22T23:58:08.048Z,100489.63
